Time;durP1;ratioP1;P1;durP2;ratioP2;P2;SDS_P1;SDS_P2;PMS_P1;PMS_P2;Temp;Humidity;BMP_temperature;BMP_pressure;BME280_temperature;BME280_humidity;BME280_pressure;Samples;Min_cycle;Max_cycle;Signal;HPM_P1;HPM_P2
2024/01/13 00:00:31;;;;;;;68.07;34.00;;;;;;;;;;2612734;54;21028;-75
2024/01/13 00:02:57;;;;;;;88.33;43.17;;;;;;;;;;2611990;54;21132;-74
2024/01/13 00:05:23;;;;;;;82.10;40.60;;;;;;;;;;2610894;39;20883;-74
2024/01/13 00:07:49;;;;;;;74.63;36.67;;;;;;;;;;2609818;54;20563;-73
2024/01/13 00:10:16;;;;;;;93.90;43.43;;;;;;;;;;2608570;54;20439;-74
2024/01/13 00:12:42;;;;;;;78.17;38.07;;;;;;;;;;2608967;54;20507;-75
2024/01/13 00:15:08;;;;;;;84.03;38.47;;;;;;;;;;2608421;54;20443;-76
2024/01/13 00:17:34;;;;;;;84.23;41.83;;;;;;;;;;2611569;54;20500;-75
2024/01/13 00:20:00;;;;;;;82.63;40.27;;;;;;;;;;2612301;54;20427;-75
2024/01/13 00:22:26;;;;;;;79.53;40.33;;;;;;;;;;2610023;54;20441;-75
2024/01/13 00:24:52;;;;;;;58.87;31.00;;;;;;;;;;2611112;54;20415;-75
2024/01/13 00:27:20;;;;;;;71.07;36.03;;;;;;;;;;2611090;54;20985;-75
2024/01/13 00:29:46;;;;;;;83.47;36.57;;;;;;;;;;2612262;54;20414;-75
2024/01/13 00:32:12;;;;;;;68.67;32.20;;;;;;;;;;2612156;54;20458;-74
2024/01/13 00:34:38;;;;;;;80.30;41.63;;;;;;;;;;2611158;54;20441;-74
2024/01/13 00:37:04;;;;;;;73.60;38.20;;;;;;;;;;2612012;39;20935;-74
2024/01/13 00:39:31;;;;;;;79.00;37.03;;;;;;;;;;2611903;54;20979;-75
2024/01/13 00:41:57;;;;;;;69.17;36.83;;;;;;;;;;2610532;54;20437;-82
2024/01/13 00:44:23;;;;;;;71.43;40.33;;;;;;;;;;2612485;47;20560;-81
2024/01/13 00:46:49;;;;;;;77.90;37.67;;;;;;;;;;2612993;54;20494;-80
2024/01/13 00:49:15;;;;;;;71.33;38.20;;;;;;;;;;2612108;47;20510;-81
2024/01/13 00:51:41;;;;;;;61.27;32.83;;;;;;;;;;2613368;54;20545;-82
2024/01/13 00:54:10;;;;;;;65.97;32.83;;;;;;;;;;2611486;47;20507;-80
2024/01/13 00:56:36;;;;;;;72.77;38.10;;;;;;;;;;2611873;39;20839;-82
2024/01/13 00:59:02;;;;;;;43.20;24.97;;;;;;;;;;2614024;54;20626;-83
2024/01/13 01:01:28;;;;;;;66.13;34.10;;;;;;;;;;2614737;54;20468;-83
2024/01/13 01:03:54;;;;;;;67.50;35.47;;;;;;;;;;2615484;47;20439;-82
2024/01/13 01:06:20;;;;;;;69.00;33.87;;;;;;;;;;2614505;54;20435;-84
2024/01/13 01:08:47;;;;;;;70.27;36.53;;;;;;;;;;2613527;47;20476;-81
2024/01/13 01:11:13;;;;;;;79.23;38.10;;;;;;;;;;2614305;54;20443;-82
2024/01/13 01:13:41;;;;;;;69.50;34.33;;;;;;;;;;2614208;47;20424;-83
2024/01/13 01:16:07;;;;;;;61.10;32.90;;;;;;;;;;2613901;54;20431;-82
2024/01/13 01:18:34;;;;;;;81.37;34.37;;;;;;;;;;2614661;54;20415;-83
2024/01/13 01:21:01;;;;;;;68.47;35.63;;;;;;;;;;2613813;54;20418;-83
2024/01/13 01:23:27;;;;;;;61.23;33.37;;;;;;;;;;2613243;54;20437;-82
2024/01/13 01:25:53;;;;;;;60.97;30.47;;;;;;;;;;2613708;54;20419;-82
2024/01/13 01:28:19;;;;;;;51.30;27.40;;;;;;;;;;2613727;54;20395;-84
2024/01/13 01:30:45;;;;;;;70.03;37.77;;;;;;;;;;2613666;47;20472;-83
2024/01/13 01:33:11;;;;;;;52.60;29.27;;;;;;;;;;2613354;54;20435;-82
2024/01/13 01:35:37;;;;;;;28.03;16.87;;;;;;;;;;2613851;54;20430;-81
2024/01/13 01:38:03;;;;;;;66.63;35.37;;;;;;;;;;2613872;54;20446;-81
2024/01/13 01:40:31;;;;;;;66.57;34.30;;;;;;;;;;2614229;39;20711;-82
2024/01/13 01:42:57;;;;;;;54.53;32.67;;;;;;;;;;2614772;46;20426;-82
2024/01/13 01:45:23;;;;;;;64.53;35.70;;;;;;;;;;2614308;47;20418;-82
2024/01/13 01:47:51;;;;;;;54.80;33.10;;;;;;;;;;2615185;54;20932;-81
2024/01/13 01:50:17;;;;;;;56.30;30.37;;;;;;;;;;2613398;47;21131;-82
2024/01/13 01:52:44;;;;;;;61.53;32.77;;;;;;;;;;2610760;54;20431;-81
2024/01/13 01:55:10;;;;;;;62.80;33.47;;;;;;;;;;2612098;54;20437;-84
2024/01/13 01:57:38;;;;;;;59.67;32.07;;;;;;;;;;2611842;54;20442;-83
2024/01/13 02:00:05;;;;;;;69.27;32.57;;;;;;;;;;2610859;54;20472;-83
2024/01/13 02:02:32;;;;;;;54.17;30.20;;;;;;;;;;2612983;54;20465;-74
2024/01/13 02:05:00;;;;;;;59.33;32.53;;;;;;;;;;2610256;54;20438;-74
2024/01/13 02:07:27;;;;;;;64.17;35.70;;;;;;;;;;2611717;54;20987;-75
2024/01/13 02:09:53;;;;;;;52.10;32.20;;;;;;;;;;2612737;39;21016;-75
2024/01/13 02:12:19;;;;;;;63.57;33.80;;;;;;;;;;2612431;39;20802;-75
2024/01/13 02:14:46;;;;;;;53.20;27.80;;;;;;;;;;2612194;54;20396;-75
2024/01/13 02:17:12;;;;;;;61.93;33.00;;;;;;;;;;2612364;54;20439;-74
2024/01/13 02:19:38;;;;;;;54.43;27.87;;;;;;;;;;2612613;54;20411;-74
2024/01/13 02:22:04;;;;;;;50.77;24.17;;;;;;;;;;2611598;54;20411;-73
2024/01/13 02:24:31;;;;;;;55.87;30.50;;;;;;;;;;2609917;47;20424;-74
2024/01/13 02:26:57;;;;;;;72.73;34.83;;;;;;;;;;2611201;54;20418;-75
2024/01/13 02:29:23;;;;;;;53.33;30.50;;;;;;;;;;2611239;54;20519;-74
2024/01/13 02:31:49;;;;;;;61.17;28.83;;;;;;;;;;2609159;54;20419;-74
2024/01/13 02:34:15;;;;;;;53.10;28.47;;;;;;;;;;2608648;54;21574;-75
2024/01/13 02:36:41;;;;;;;45.57;28.10;;;;;;;;;;2611584;54;20427;-75
2024/01/13 02:39:07;;;;;;;44.60;27.10;;;;;;;;;;2609692;46;20450;-73
2024/01/13 02:41:33;;;;;;;40.90;25.50;;;;;;;;;;2609134;54;21093;-74
2024/01/13 02:43:59;;;;;;;48.57;28.77;;;;;;;;;;2609135;39;20821;-74
2024/01/13 02:46:25;;;;;;;46.77;28.10;;;;;;;;;;2609469;54;21494;-74
2024/01/13 02:48:56;;;;;;;50.90;29.13;;;;;;;;;;2609673;54;20436;-74
2024/01/13 02:51:22;;;;;;;44.37;23.40;;;;;;;;;;2610276;54;20419;-75
2024/01/13 02:53:48;;;;;;;39.80;24.30;;;;;;;;;;2609753;31;20813;-74
2024/01/13 02:56:15;;;;;;;34.83;21.27;;;;;;;;;;2608141;54;20438;-74
2024/01/13 02:58:41;;;;;;;47.87;25.57;;;;;;;;;;2609064;54;20435;-74
2024/01/13 03:01:07;;;;;;;46.70;26.33;;;;;;;;;;2608972;54;20410;-74
2024/01/13 03:03:37;;;;;;;40.97;25.70;;;;;;;;;;2612052;39;20950;-84
2024/01/13 03:06:03;;;;;;;41.27;24.37;;;;;;;;;;2612024;54;20413;-83
2024/01/13 03:08:30;;;;;;;48.23;26.83;;;;;;;;;;2613840;54;20593;-81
2024/01/13 03:10:56;;;;;;;44.00;26.47;;;;;;;;;;2611915;54;20420;-82
2024/01/13 03:13:22;;;;;;;46.20;28.73;;;;;;;;;;2614148;54;20430;-84
2024/01/13 03:15:48;;;;;;;47.93;28.73;;;;;;;;;;2615170;54;21388;-85
2024/01/13 03:18:15;;;;;;;43.20;27.50;;;;;;;;;;2615476;31;20953;-85
2024/01/13 03:20:42;;;;;;;38.43;25.67;;;;;;;;;;2616847;54;20433;-84
2024/01/13 03:23:09;;;;;;;45.77;29.30;;;;;;;;;;2617897;39;20793;-84
2024/01/13 03:25:35;;;;;;;42.37;22.87;;;;;;;;;;2617801;54;20419;-83
2024/01/13 03:28:01;;;;;;;51.57;26.47;;;;;;;;;;2618322;54;20452;-83
2024/01/13 03:30:27;;;;;;;40.33;24.00;;;;;;;;;;2616951;54;21265;-84
2024/01/13 03:32:53;;;;;;;27.67;16.07;;;;;;;;;;2615893;39;20999;-85
2024/01/13 03:35:19;;;;;;;45.77;20.90;;;;;;;;;;2615832;54;20409;-84
2024/01/13 03:37:45;;;;;;;41.80;23.70;;;;;;;;;;2613545;47;20426;-83
2024/01/13 03:40:11;;;;;;;41.93;24.70;;;;;;;;;;2613516;47;20432;-84
2024/01/13 03:42:37;;;;;;;44.57;25.97;;;;;;;;;;2613391;54;20380;-84
2024/01/13 03:45:03;;;;;;;42.50;27.77;;;;;;;;;;2613702;51;20406;-84
2024/01/13 03:47:29;;;;;;;44.50;23.67;;;;;;;;;;2613899;54;21142;-85
2024/01/13 03:49:55;;;;;;;37.20;20.03;;;;;;;;;;2614101;39;21222;-85
2024/01/13 03:52:21;;;;;;;42.97;25.83;;;;;;;;;;2613656;54;20407;-84
2024/01/13 03:54:48;;;;;;;36.27;24.43;;;;;;;;;;2613528;54;20418;-84
2024/01/13 03:57:14;;;;;;;28.17;18.20;;;;;;;;;;2615223;39;20802;-85
2024/01/13 03:59:42;;;;;;;30.80;15.50;;;;;;;;;;2614047;54;20488;-85
2024/01/13 04:02:08;;;;;;;38.47;21.20;;;;;;;;;;2614552;54;20430;-85
2024/01/13 04:04:34;;;;;;;36.80;20.70;;;;;;;;;;2615297;54;20593;-85
2024/01/13 04:07:01;;;;;;;36.80;23.53;;;;;;;;;;2615632;54;20447;-85
2024/01/13 04:09:27;;;;;;;29.70;17.70;;;;;;;;;;2618207;54;20431;-84
2024/01/13 04:11:53;;;;;;;36.60;22.70;;;;;;;;;;2621009;54;20402;-74
2024/01/13 04:14:19;;;;;;;37.63;23.53;;;;;;;;;;2610468;54;21064;-74
2024/01/13 04:16:45;;;;;;;30.60;18.73;;;;;;;;;;2612265;39;20827;-73
2024/01/13 04:19:11;;;;;;;45.10;22.70;;;;;;;;;;2612895;39;20815;-73
2024/01/13 04:21:37;;;;;;;42.97;25.07;;;;;;;;;;2611959;54;20375;-73
2024/01/13 04:24:04;;;;;;;35.03;21.30;;;;;;;;;;2614805;39;20811;-85
2024/01/13 04:26:31;;;;;;;31.73;19.80;;;;;;;;;;2615635;46;20440;-83
2024/01/13 04:28:58;;;;;;;34.37;22.70;;;;;;;;;;2615709;47;20721;-86
2024/01/13 04:31:24;;;;;;;32.63;19.60;;;;;;;;;;2615613;47;20433;-85
2024/01/13 04:33:50;;;;;;;36.23;23.77;;;;;;;;;;2615100;47;20506;-85
2024/01/13 04:36:16;;;;;;;33.30;19.60;;;;;;;;;;2615710;54;20395;-85
2024/01/13 04:38:43;;;;;;;27.73;16.57;;;;;;;;;;2616232;39;20700;-85
2024/01/13 04:41:10;;;;;;;37.67;24.60;;;;;;;;;;2616306;54;20411;-86
2024/01/13 04:43:38;;;;;;;37.90;21.10;;;;;;;;;;2617132;54;20447;-86
2024/01/13 04:46:06;;;;;;;37.73;23.30;;;;;;;;;;2616794;54;20948;-85
2024/01/13 04:48:32;;;;;;;40.83;25.10;;;;;;;;;;2617026;39;20837;-85
2024/01/13 04:50:58;;;;;;;34.27;24.53;;;;;;;;;;2616490;54;20419;-86
2024/01/13 04:53:24;;;;;;;42.60;24.30;;;;;;;;;;2615220;47;20421;-87
2024/01/13 04:55:51;;;;;;;41.73;24.37;;;;;;;;;;2616639;47;20403;-84
2024/01/13 04:58:17;;;;;;;42.73;27.47;;;;;;;;;;2617811;39;20864;-85
2024/01/13 05:00:43;;;;;;;44.03;25.57;;;;;;;;;;2616757;47;20403;-85
2024/01/13 05:03:09;;;;;;;34.13;22.60;;;;;;;;;;2617034;47;20435;-85
2024/01/13 05:05:35;;;;;;;44.53;25.73;;;;;;;;;;2616568;54;20448;-85
2024/01/13 05:08:01;;;;;;;37.60;20.10;;;;;;;;;;2617086;47;20429;-85
2024/01/13 05:10:29;;;;;;;33.07;17.90;;;;;;;;;;2617288;54;20424;-87
2024/01/13 05:12:55;;;;;;;35.33;21.70;;;;;;;;;;2616433;54;20414;-86
2024/01/13 05:15:31;;;;;;;34.10;21.00;;;;;;;;;;2616054;46;20413;-85
2024/01/13 05:18:01;;;;;;;41.47;26.93;;;;;;;;;;2615839;54;20422;-85
2024/01/13 05:20:27;;;;;;;38.83;23.80;;;;;;;;;;2615893;54;20415;-85
2024/01/13 05:22:53;;;;;;;35.93;24.73;;;;;;;;;;2616432;47;20499;-84
2024/01/13 05:25:20;;;;;;;37.17;21.40;;;;;;;;;;2615262;54;20944;-86
2024/01/13 05:27:46;;;;;;;46.37;23.03;;;;;;;;;;2615970;54;20419;-85
2024/01/13 05:30:12;;;;;;;41.23;23.10;;;;;;;;;;2616959;31;20987;-86
2024/01/13 05:32:39;;;;;;;36.80;22.70;;;;;;;;;;2616336;54;20443;-83
2024/01/13 05:35:06;;;;;;;36.07;16.70;;;;;;;;;;2614486;54;20933;-83
2024/01/13 05:37:32;;;;;;;39.70;24.30;;;;;;;;;;2614334;54;20414;-82
2024/01/13 05:39:58;;;;;;;35.50;23.77;;;;;;;;;;2615712;54;21429;-83
2024/01/13 05:42:24;;;;;;;25.17;14.13;;;;;;;;;;2614913;39;20818;-83
2024/01/13 05:44:50;;;;;;;39.63;21.57;;;;;;;;;;2613489;47;20435;-83
2024/01/13 05:47:16;;;;;;;46.37;25.30;;;;;;;;;;2613011;54;20407;-82
2024/01/13 05:49:43;;;;;;;35.30;21.47;;;;;;;;;;2614869;47;20417;-83
2024/01/13 05:52:12;;;;;;;41.87;21.60;;;;;;;;;;2615811;39;20825;-82
2024/01/13 05:54:41;;;;;;;52.97;24.90;;;;;;;;;;2612698;54;20426;-83
2024/01/13 05:57:09;;;;;;;39.73;25.13;;;;;;;;;;2614172;54;20410;-82
2024/01/13 05:59:35;;;;;;;36.27;22.10;;;;;;;;;;2613853;47;20456;-82
2024/01/13 06:02:01;;;;;;;39.67;24.43;;;;;;;;;;2614579;54;20471;-82
2024/01/13 06:04:27;;;;;;;44.93;21.10;;;;;;;;;;2615642;47;20447;-82
2024/01/13 06:06:53;;;;;;;35.73;20.87;;;;;;;;;;2614471;54;20408;-83
2024/01/13 06:09:20;;;;;;;27.60;15.07;;;;;;;;;;2615793;54;20424;-83
2024/01/13 06:11:47;;;;;;;42.17;22.83;;;;;;;;;;2615425;54;20420;-84
2024/01/13 06:14:13;;;;;;;28.77;20.43;;;;;;;;;;2614176;54;20416;-82
2024/01/13 06:16:39;;;;;;;31.43;23.23;;;;;;;;;;2614467;54;20979;-83
2024/01/13 06:19:05;;;;;;;16.47;11.70;;;;;;;;;;2613863;54;20385;-83
2024/01/13 06:21:32;;;;;;;39.80;20.77;;;;;;;;;;2613838;54;20478;-83
2024/01/13 06:23:59;;;;;;;49.83;26.80;;;;;;;;;;2612778;54;20442;-82
2024/01/13 06:26:26;;;;;;;33.97;21.33;;;;;;;;;;2612751;54;20467;-82
2024/01/13 06:28:52;;;;;;;42.00;26.60;;;;;;;;;;2614530;54;20519;-82
2024/01/13 06:31:18;;;;;;;37.27;23.10;;;;;;;;;;2614773;54;20415;-82
2024/01/13 06:33:45;;;;;;;38.30;22.83;;;;;;;;;;2615537;54;20420;-84
2024/01/13 06:36:11;;;;;;;42.00;26.93;;;;;;;;;;2615136;54;20415;-85
2024/01/13 06:38:37;;;;;;;36.30;18.00;;;;;;;;;;2615638;54;20501;-86
2024/01/13 06:41:03;;;;;;;47.47;24.70;;;;;;;;;;2615366;54;21158;-85
2024/01/13 06:43:29;;;;;;;33.93;20.80;;;;;;;;;;2616025;47;20432;-85
2024/01/13 06:45:56;;;;;;;40.83;25.30;;;;;;;;;;2618324;54;20406;-84
2024/01/13 06:48:22;;;;;;;36.10;22.70;;;;;;;;;;2618432;54;20380;-85
2024/01/13 06:50:49;;;;;;;37.53;24.97;;;;;;;;;;2618350;54;20486;-85
2024/01/13 06:53:15;;;;;;;16.63;11.27;;;;;;;;;;2617337;54;20387;-85
2024/01/13 06:55:41;;;;;;;37.47;22.23;;;;;;;;;;2617578;47;20899;-84
2024/01/13 06:58:09;;;;;;;33.83;21.10;;;;;;;;;;2618417;54;21460;-85
2024/01/13 07:00:37;;;;;;;33.83;18.70;;;;;;;;;;2617820;54;20453;-85
2024/01/13 07:03:03;;;;;;;35.10;23.00;;;;;;;;;;2619331;31;20894;-85
2024/01/13 07:05:30;;;;;;;42.20;23.77;;;;;;;;;;2619539;54;21008;-84
2024/01/13 07:07:59;;;;;;;23.70;17.37;;;;;;;;;;2620184;54;20416;-84
2024/01/13 07:10:25;;;;;;;21.97;16.67;;;;;;;;;;2618419;54;20424;-84
2024/01/13 07:12:52;;;;;;;26.00;18.63;;;;;;;;;;2617735;47;20422;-84
2024/01/13 07:15:18;;;;;;;36.40;22.87;;;;;;;;;;2618224;39;20840;-85
2024/01/13 07:17:44;;;;;;;33.63;22.57;;;;;;;;;;2620120;54;20431;-84
2024/01/13 07:20:11;;;;;;;38.03;23.73;;;;;;;;;;2617802;54;20403;-83
2024/01/13 07:22:38;;;;;;;34.10;21.93;;;;;;;;;;2615916;47;20418;-84
2024/01/13 07:25:05;;;;;;;29.10;16.83;;;;;;;;;;2616422;46;21445;-84
2024/01/13 07:27:32;;;;;;;26.93;16.47;;;;;;;;;;2615749;54;20423;-85
2024/01/13 07:29:59;;;;;;;21.73;12.47;;;;;;;;;;2614264;47;20424;-84
2024/01/13 07:32:26;;;;;;;11.07;9.17;;;;;;;;;;2613777;54;20423;-82
2024/01/13 07:34:52;;;;;;;31.20;19.90;;;;;;;;;;2615161;54;20465;-82
2024/01/13 07:37:18;;;;;;;32.03;19.63;;;;;;;;;;2612210;54;20409;-83
2024/01/13 07:39:46;;;;;;;24.10;16.40;;;;;;;;;;2614997;47;20462;-84
2024/01/13 07:42:12;;;;;;;31.80;17.90;;;;;;;;;;2612631;54;20419;-81
2024/01/13 07:44:38;;;;;;;24.83;14.43;;;;;;;;;;2613250;54;20459;-81
2024/01/13 07:47:04;;;;;;;20.00;13.27;;;;;;;;;;2612981;54;20462;-82
2024/01/13 07:49:32;;;;;;;29.00;17.23;;;;;;;;;;2613941;47;20471;-81
2024/01/13 07:51:58;;;;;;;26.73;17.20;;;;;;;;;;2612626;54;20426;-78
2024/01/13 07:54:24;;;;;;;19.30;10.67;;;;;;;;;;2612634;39;21044;-78
2024/01/13 07:56:51;;;;;;;25.23;16.53;;;;;;;;;;2610723;47;20422;-78
2024/01/13 07:59:17;;;;;;;22.93;13.00;;;;;;;;;;2613510;31;20855;-78
2024/01/13 08:01:44;;;;;;;26.50;17.43;;;;;;;;;;2611592;54;20430;-77
2024/01/13 08:04:10;;;;;;;21.90;14.80;;;;;;;;;;2611922;54;20531;-78
2024/01/13 08:06:36;;;;;;;18.43;12.80;;;;;;;;;;2612513;47;20407;-77
2024/01/13 08:09:06;;;;;;;17.80;12.40;;;;;;;;;;2612684;54;20398;-77
2024/01/13 08:11:32;;;;;;;28.10;16.67;;;;;;;;;;2609474;54;20409;-78
2024/01/13 08:13:58;;;;;;;27.37;17.00;;;;;;;;;;2611924;54;20763;-79
2024/01/13 08:16:24;;;;;;;19.03;9.83;;;;;;;;;;2611803;54;20429;-77
2024/01/13 08:18:50;;;;;;;21.57;13.47;;;;;;;;;;2611227;54;20396;-78
2024/01/13 08:21:16;;;;;;;24.63;16.27;;;;;;;;;;2612849;54;20496;-78
2024/01/13 08:23:42;;;;;;;21.93;13.37;;;;;;;;;;2611874;47;20445;-76
2024/01/13 08:26:09;;;;;;;21.83;14.73;;;;;;;;;;2612589;54;20438;-79
2024/01/13 08:28:35;;;;;;;16.40;11.50;;;;;;;;;;2611642;54;20426;-79
2024/01/13 08:31:02;;;;;;;16.73;10.53;;;;;;;;;;2610597;54;20416;-78
2024/01/13 08:33:28;;;;;;;14.43;10.70;;;;;;;;;;2611778;54;20438;-79
2024/01/13 08:35:54;;;;;;;18.27;12.87;;;;;;;;;;2610897;47;20483;-78
2024/01/13 08:38:20;;;;;;;22.80;13.80;;;;;;;;;;2610867;39;21143;-78
2024/01/13 08:40:46;;;;;;;18.27;12.83;;;;;;;;;;2610941;39;20766;-79
2024/01/13 08:43:12;;;;;;;29.47;17.30;;;;;;;;;;2612306;39;20927;-78
2024/01/13 08:45:38;;;;;;;29.97;17.37;;;;;;;;;;2611056;54;20416;-78
2024/01/13 08:48:05;;;;;;;33.70;22.07;;;;;;;;;;2611980;54;20419;-79
2024/01/13 08:50:34;;;;;;;23.40;16.20;;;;;;;;;;2611273;54;20406;-77
2024/01/13 08:53:00;;;;;;;27.80;16.17;;;;;;;;;;2615053;39;20940;-83
2024/01/13 08:55:26;;;;;;;37.13;20.33;;;;;;;;;;2615802;54;20491;-82
2024/01/13 08:57:52;;;;;;;23.63;14.03;;;;;;;;;;2615075;54;20411;-85
2024/01/13 09:00:24;;;;;;;40.00;20.40;;;;;;;;;;2619612;54;20426;-83
2024/01/13 09:02:50;;;;;;;20.87;12.27;;;;;;;;;;2618754;47;20450;-82
2024/01/13 09:05:27;;;;;;;39.73;23.60;;;;;;;;;;2619280;54;20419;-82
2024/01/13 09:08:10;;;;;;;24.83;15.53;;;;;;;;;;2619248;54;20535;-83
2024/01/13 09:10:47;;;;;;;41.63;26.50;;;;;;;;;;2619850;54;20417;-83
2024/01/13 09:13:25;;;;;;;17.00;10.60;;;;;;;;;;2619938;54;20410;-84
2024/01/13 09:15:53;;;;;;;28.20;19.23;;;;;;;;;;2619933;54;20447;-84
2024/01/13 09:18:32;;;;;;;25.67;13.10;;;;;;;;;;2620955;54;20383;-85
2024/01/13 09:21:08;;;;;;;25.30;18.07;;;;;;;;;;2622107;54;20418;-85
2024/01/13 09:23:46;;;;;;;28.73;16.97;;;;;;;;;;2620073;39;20783;-84
2024/01/13 09:26:13;;;;;;;18.83;12.30;;;;;;;;;;2620801;46;20422;-83
2024/01/13 09:28:43;;;;;;;18.73;13.10;;;;;;;;;;2619426;54;20989;-87
2024/01/13 09:31:15;;;;;;;29.27;18.00;;;;;;;;;;2619229;54;20519;-85
2024/01/13 09:33:43;;;;;;;31.20;16.90;;;;;;;;;;2619218;47;20458;-85
2024/01/13 09:36:25;;;;;;;19.30;14.40;;;;;;;;;;2619813;54;20400;-82
2024/01/13 09:39:06;;;;;;;19.83;10.90;;;;;;;;;;2619641;39;20786;-83
2024/01/13 09:41:45;;;;;;;20.47;12.93;;;;;;;;;;2619828;47;20407;-83
2024/01/13 09:44:27;;;;;;;20.00;13.07;;;;;;;;;;2618193;54;20432;-82
2024/01/13 09:46:54;;;;;;;30.33;13.70;;;;;;;;;;2619529;39;20784;-82
2024/01/13 09:49:31;;;;;;;24.13;14.27;;;;;;;;;;2618993;54;20392;-82
2024/01/13 09:52:06;;;;;;;29.80;19.33;;;;;;;;;;2620330;54;21027;-84
2024/01/13 09:54:32;;;;;;;28.53;21.67;;;;;;;;;;2619028;54;20968;-84
2024/01/13 09:57:15;;;;;;;34.47;20.10;;;;;;;;;;2620514;47;20391;-84
2024/01/13 09:59:55;;;;;;;30.33;18.07;;;;;;;;;;2619690;54;20413;-84
2024/01/13 10:02:21;;;;;;;42.27;21.03;;;;;;;;;;2620717;46;20472;-86
2024/01/13 10:05:05;;;;;;;26.70;17.70;;;;;;;;;;2625489;39;20917;-86
2024/01/13 10:07:38;;;;;;;33.53;19.40;;;;;;;;;;2626189;54;20375;-86
2024/01/13 10:10:25;;;;;;;33.87;21.40;;;;;;;;;;2626273;47;20388;-86
2024/01/13 10:12:52;;;;;;;33.10;19.93;;;;;;;;;;2625872;54;20367;-86
2024/01/13 10:15:22;;;;;;;28.50;19.20;;;;;;;;;;2626329;54;21007;-86
2024/01/13 10:17:56;;;;;;;39.87;23.87;;;;;;;;;;2628097;47;20376;-86
2024/01/13 10:20:29;;;;;;;34.67;22.10;;;;;;;;;;2625237;47;20435;-84
2024/01/13 10:23:06;;;;;;;34.30;20.70;;;;;;;;;;2623494;54;20426;-84
2024/01/13 10:25:45;;;;;;;35.23;21.93;;;;;;;;;;2630247;47;20387;-83
2024/01/13 10:28:13;;;;;;;19.80;13.33;;;;;;;;;;2629147;54;20431;-83
2024/01/13 10:30:55;;;;;;;25.33;17.60;;;;;;;;;;2628618;54;20377;-86
2024/01/13 10:33:29;;;;;;;25.47;18.40;;;;;;;;;;2623557;54;20419;-86
2024/01/13 10:36:05;;;;;;;29.10;16.00;;;;;;;;;;2623403;47;20391;-87
2024/01/13 10:38:33;;;;;;;33.63;21.43;;;;;;;;;;2621069;54;20390;-85
2024/01/13 10:41:24;;;;;;;29.27;20.00;;;;;;;;;;2620632;54;20421;-83
2024/01/13 10:43:53;;;;;;;25.53;16.30;;;;;;;;;;2621601;54;20390;-83
2024/01/13 10:46:22;;;;;;;22.40;13.27;;;;;;;;;;2619847;54;20963;-84
2024/01/13 10:49:13;;;;;;;30.00;18.80;;;;;;;;;;2620695;54;20430;-85
2024/01/13 10:52:14;;;;;;;27.67;16.97;;;;;;;;;;2619718;47;20420;-85
2024/01/13 10:54:41;;;;;;;30.57;19.77;;;;;;;;;;2619481;47;20412;-84
2024/01/13 10:57:11;;;;;;;28.53;17.20;;;;;;;;;;2619558;47;20520;-84
2024/01/13 10:59:55;;;;;;;32.90;19.83;;;;;;;;;;2619954;54;20426;-85
2024/01/13 11:02:22;;;;;;;38.97;19.80;;;;;;;;;;2620902;54;20471;-86
2024/01/13 11:04:54;;;;;;;27.97;17.83;;;;;;;;;;2620361;47;20399;-85
2024/01/13 11:07:50;;;;;;;23.80;15.57;;;;;;;;;;2619166;47;20425;-85
2024/01/13 11:10:35;;;;;;;33.47;22.80;;;;;;;;;;2619690;46;20396;-86
2024/01/13 11:13:15;;;;;;;27.03;13.80;;;;;;;;;;2619216;39;20882;-85
2024/01/13 11:16:06;;;;;;;33.90;19.30;;;;;;;;;;2618552;47;20405;-86
2024/01/13 11:18:51;;;;;;;31.83;21.23;;;;;;;;;;2619114;47;20433;-86
2024/01/13 11:21:48;;;;;;;33.50;17.33;;;;;;;;;;2619151;54;21009;-86
2024/01/13 11:24:36;;;;;;;26.67;15.70;;;;;;;;;;2616385;54;20390;-84
2024/01/13 11:27:04;;;;;;;17.43;11.63;;;;;;;;;;2616571;54;20958;-83
2024/01/13 11:29:55;;;;;;;28.20;16.33;;;;;;;;;;2617041;39;20808;-84
2024/01/13 11:32:21;;;;;;;19.57;12.17;;;;;;;;;;2615388;47;20503;-82
2024/01/13 11:34:56;;;;;;;22.57;13.67;;;;;;;;;;2616586;54;20432;-83
2024/01/13 11:37:22;;;;;;;16.53;11.30;;;;;;;;;;2616084;54;20422;-81
2024/01/13 11:40:04;;;;;;;32.03;22.90;;;;;;;;;;2615478;54;20384;-81
2024/01/13 11:42:42;;;;;;;21.03;14.73;;;;;;;;;;2616546;54;20488;-83
2024/01/13 11:45:15;;;;;;;29.40;19.10;;;;;;;;;;2617181;54;20434;-84
2024/01/13 11:47:52;;;;;;;18.70;12.10;;;;;;;;;;2618423;54;21030;-83
2024/01/13 11:50:54;;;;;;;29.27;19.83;;;;;;;;;;2616643;47;20418;-83
2024/01/13 11:53:40;;;;;;;13.33;7.13;;;;;;;;;;2617636;39;20820;-81
2024/01/13 11:56:07;;;;;;;13.03;7.60;;;;;;;;;;2617161;54;20429;-84
2024/01/13 11:58:43;;;;;;;26.47;15.57;;;;;;;;;;2616382;54;20395;-83
2024/01/13 12:01:18;;;;;;;28.80;19.47;;;;;;;;;;2618043;54;20485;-83
2024/01/13 12:03:45;;;;;;;22.33;11.80;;;;;;;;;;2616872;54;20411;-82
2024/01/13 12:06:25;;;;;;;31.40;19.00;;;;;;;;;;2615848;54;20391;-84
2024/01/13 12:09:05;;;;;;;25.03;15.07;;;;;;;;;;2617505;54;20473;-82
2024/01/13 12:11:38;;;;;;;33.67;19.70;;;;;;;;;;2617871;47;20435;-83
2024/01/13 12:14:26;;;;;;;27.00;16.50;;;;;;;;;;2616880;54;20529;-83
2024/01/13 12:16:52;;;;;;;31.70;19.80;;;;;;;;;;2617858;39;20812;-81
2024/01/13 12:19:21;;;;;;;29.37;18.23;;;;;;;;;;2617045;47;20419;-83
2024/01/13 12:21:58;;;;;;;11.90;7.57;;;;;;;;;;2616366;54;20392;-83
2024/01/13 12:24:33;;;;;;;34.30;19.70;;;;;;;;;;2617103;54;20972;-81
2024/01/13 12:27:25;;;;;;;17.03;10.87;;;;;;;;;;2617814;39;20717;-80
2024/01/13 12:30:10;;;;;;;26.17;13.47;;;;;;;;;;2615869;54;20511;-80
2024/01/13 12:33:12;;;;;;;30.83;18.00;;;;;;;;;;2617256;39;20998;-83
2024/01/13 12:36:12;;;;;;;20.03;11.70;;;;;;;;;;2616686;54;20498;-85
2024/01/13 12:38:38;;;;;;;22.30;14.80;;;;;;;;;;2618045;54;20428;-83
2024/01/13 12:41:26;;;;;;;12.33;8.67;;;;;;;;;;2616523;54;20512;-83
2024/01/13 12:44:23;;;;;;;24.97;14.10;;;;;;;;;;2617469;54;20408;-82
2024/01/13 12:47:11;;;;;;;24.30;14.93;;;;;;;;;;2617419;54;20411;-83
2024/01/13 12:49:55;;;;;;;22.30;15.70;;;;;;;;;;2617694;54;20447;-80
2024/01/13 12:52:22;;;;;;;24.40;14.30;;;;;;;;;;2617440;54;20905;-85
2024/01/13 12:55:02;;;;;;;22.63;15.37;;;;;;;;;;2617173;54;20426;-82
2024/01/13 12:57:45;;;;;;;20.07;14.03;;;;;;;;;;2617849;39;20737;-83
2024/01/13 13:00:12;;;;;;;31.47;15.87;;;;;;;;;;2616503;46;20394;-83
2024/01/13 13:02:39;;;;;;;24.47;17.63;;;;;;;;;;2616483;47;20451;-83
2024/01/13 13:05:21;;;;;;;29.23;15.50;;;;;;;;;;2616670;39;20786;-83
2024/01/13 13:07:53;;;;;;;25.57;16.93;;;;;;;;;;2616375;47;20407;-84
2024/01/13 13:10:49;;;;;;;25.27;16.00;;;;;;;;;;2615042;54;20562;-83
2024/01/13 13:13:29;;;;;;;11.93;7.80;;;;;;;;;;2615945;39;20897;-80
2024/01/13 13:16:01;;;;;;;19.97;12.07;;;;;;;;;;2616268;39;20798;-81
2024/01/13 13:18:47;;;;;;;19.17;12.80;;;;;;;;;;2616588;54;20435;-81
2024/01/13 13:21:25;;;;;;;31.67;18.03;;;;;;;;;;2615947;47;20443;-81
2024/01/13 13:23:52;;;;;;;25.60;13.30;;;;;;;;;;2616238;54;20453;-82
2024/01/13 13:26:51;;;;;;;32.33;19.07;;;;;;;;;;2616594;54;20458;-80
2024/01/13 13:29:35;;;;;;;21.43;11.93;;;;;;;;;;2616688;39;20769;-81
2024/01/13 13:32:15;;;;;;;33.33;17.50;;;;;;;;;;2616488;54;20992;-81
2024/01/13 13:35:12;;;;;;;23.63;13.77;;;;;;;;;;2616218;54;20451;-81
2024/01/13 13:38:12;;;;;;;26.17;18.00;;;;;;;;;;2615917;54;20490;-83
2024/01/13 13:40:58;;;;;;;31.33;16.70;;;;;;;;;;2615612;54;20431;-81
2024/01/13 13:43:35;;;;;;;27.67;16.10;;;;;;;;;;2616660;54;20441;-80
2024/01/13 13:46:02;;;;;;;22.57;13.73;;;;;;;;;;2615965;54;20526;-82
2024/01/13 13:49:02;;;;;;;28.50;14.63;;;;;;;;;;2615258;47;20400;-80
2024/01/13 13:51:49;;;;;;;14.83;10.40;;;;;;;;;;2615034;54;20943;-79
2024/01/13 13:54:25;;;;;;;34.30;20.43;;;;;;;;;;2615535;54;20396;-80
2024/01/13 13:56:52;;;;;;;38.47;20.30;;;;;;;;;;2614840;54;20414;-80
2024/01/13 13:59:35;;;;;;;32.30;17.63;;;;;;;;;;2615015;54;20411;-80
2024/01/13 14:02:01;;;;;;;34.73;20.33;;;;;;;;;;2614926;54;20451;-81
2024/01/13 14:04:27;;;;;;;39.07;25.47;;;;;;;;;;2615788;39;20894;-80
2024/01/13 14:06:53;;;;;;;42.00;23.07;;;;;;;;;;2614836;46;20981;-79
2024/01/13 14:09:28;;;;;;;21.07;13.00;;;;;;;;;;2615764;54;20400;-79
2024/01/13 14:12:15;;;;;;;27.27;18.57;;;;;;;;;;2614731;39;20806;-80
2024/01/13 14:14:41;;;;;;;29.73;16.20;;;;;;;;;;2615750;54;20946;-80
2024/01/13 14:17:08;;;;;;;27.63;18.50;;;;;;;;;;2615349;54;20407;-80
2024/01/13 14:19:45;;;;;;;29.87;18.40;;;;;;;;;;2614340;54;20419;-81
2024/01/13 14:22:21;;;;;;;25.70;14.20;;;;;;;;;;2614325;54;20488;-81
2024/01/13 14:24:59;;;;;;;32.53;17.87;;;;;;;;;;2615669;54;20390;-81
2024/01/13 14:28:02;;;;;;;29.50;16.63;;;;;;;;;;2616166;54;20571;-81
2024/01/13 14:30:45;;;;;;;33.17;20.07;;;;;;;;;;2616474;54;20407;-80
2024/01/13 14:33:11;;;;;;;37.87;19.97;;;;;;;;;;2616146;54;20418;-80
2024/01/13 14:35:45;;;;;;;30.97;15.30;;;;;;;;;;2616149;47;20419;-81